createdAt,value
2018-11-02T00:00:11.040Z,92.42
2018-11-02T00:01:11.011Z,92.93
2018-11-02T00:02:11.007Z,93.14
2018-11-02T00:03:10.986Z,92.93
2018-11-02T00:04:11.008Z,92.63
2018-11-02T00:05:11.000Z,92.83
2018-11-02T00:06:11.019Z,92.73
2018-11-02T00:07:10.949Z,92.77
2018-11-02T00:08:10.935Z,92.67
2018-11-02T00:09:10.922Z,92.98
2018-11-02T00:10:10.912Z,93.33
2018-11-02T00:17:15.469Z,94.25
2018-11-02T00:18:15.501Z,94.15
2018-11-02T00:19:15.444Z,94.04
2018-11-02T00:20:15.435Z,93.95
2018-11-02T00:21:15.426Z,94.15
2018-11-02T00:22:15.414Z,94.15
2018-11-02T00:23:15.403Z,94.04
2018-11-02T00:24:15.394Z,93.53
2018-11-02T00:25:15.388Z,93.53
2018-11-02T00:26:15.370Z,93.64
2018-11-02T00:27:15.362Z,93.78
2018-11-02T00:28:15.347Z,93.89
2018-11-02T00:29:15.342Z,93.99
2018-11-02T00:30:15.326Z,93.99
2018-11-02T00:31:15.314Z,94.09
2018-11-02T00:32:15.306Z,94.19
2018-11-02T00:33:15.292Z,94.44
2018-11-02T00:34:15.285Z,94.85
2018-11-02T00:35:15.271Z,94.85
2018-11-02T00:36:15.258Z,94.85
2018-11-02T00:37:15.250Z,95.06
2018-11-02T00:38:15.288Z,95.26
2018-11-02T00:39:15.234Z,95.26
2018-11-02T00:40:15.216Z,95.06
2018-11-02T00:41:15.209Z,95.06
2018-11-02T00:42:15.194Z,94.95
2018-11-02T00:43:15.184Z,95.16
2018-11-02T00:44:15.334Z,95.16
2018-11-02T00:45:15.160Z,94.75
2018-11-02T00:46:15.150Z,94.44
2018-11-02T00:47:15.139Z,94.44
2018-11-02T00:48:15.129Z,94.54
2018-11-02T00:49:15.117Z,94.75
2018-11-02T00:50:15.109Z,94.95
2018-11-02T00:51:15.130Z,95.06
2018-11-02T00:52:15.084Z,95.16
2018-11-02T00:53:15.075Z,95.16
2018-11-02T00:54:15.064Z,95.20
2018-11-02T00:55:15.052Z,95.10
2018-11-02T00:56:15.039Z,95.20
2018-11-02T00:57:15.030Z,95.31
2018-11-02T00:58:15.019Z,95.31
2018-11-02T00:59:15.014Z,95.16
2018-11-02T01:00:14.999Z,95.16
2018-11-02T01:01:14.986Z,95.06
2018-11-02T01:02:14.974Z,94.65
2018-11-02T01:03:15.023Z,94.34
2018-11-02T01:04:14.953Z,94.34
2018-11-02T01:05:14.941Z,94.44
2018-11-02T01:06:14.933Z,94.65
2018-11-02T01:07:14.923Z,94.85
2018-11-02T01:08:14.910Z,94.54
2018-11-02T01:09:14.899Z,94.44
2018-11-02T01:10:14.885Z,94.44
2018-11-02T01:11:14.878Z,94.34
2018-11-02T01:12:14.889Z,94.44
2018-11-02T01:13:14.853Z,94.44
2018-11-02T01:14:14.844Z,94.44
2018-11-02T01:15:14.833Z,94.44
2018-11-02T01:16:14.823Z,94.24
2018-11-02T01:17:14.814Z,94.03
2018-11-02T01:18:14.798Z,93.68
2018-11-02T01:19:14.787Z,93.78
2018-11-02T01:20:14.777Z,93.68
2018-11-02T01:21:14.768Z,93.48
2018-11-02T01:22:14.754Z,93.58
2018-11-02T01:23:14.744Z,93.58
2018-11-02T01:24:14.734Z,93.72
2018-11-02T01:25:14.722Z,93.37
2018-11-02T01:26:14.712Z,93.82
2018-11-02T01:27:14.699Z,93.68
2018-11-02T01:28:14.692Z,93.52
2018-11-02T01:29:14.678Z,92.65
2018-11-02T01:30:14.667Z,92.35
2018-11-02T01:31:14.660Z,92.14
2018-11-02T01:32:14.645Z,92.35
2018-11-02T01:33:14.635Z,92.65
2018-11-02T01:34:14.626Z,92.76
2018-11-02T01:35:14.614Z,92.86
2018-11-02T01:36:14.602Z,92.86
2018-11-02T01:37:14.592Z,93.06
2018-11-02T01:38:14.580Z,92.65
2018-11-02T01:39:14.567Z,92.86
2018-11-02T01:40:14.656Z,92.96
2018-11-02T01:41:14.545Z,92.86
2018-11-02T01:42:14.535Z,93.17
2018-11-02T01:43:14.527Z,93.06
2018-11-02T01:44:14.525Z,92.96
2018-11-02T01:45:14.503Z,93.48
2018-11-02T01:46:14.491Z,93.68
2018-11-02T01:47:14.480Z,93.68
2018-11-02T01:48:14.473Z,93.78
2018-11-02T01:49:14.489Z,93.58
2018-11-02T01:50:14.447Z,92.96
2018-11-02T01:51:14.441Z,92.55
2018-11-02T01:52:14.430Z,92.35
2018-11-02T01:53:14.422Z,92.55
2018-11-02T01:54:14.403Z,92.35
2018-11-02T01:55:14.392Z,92.49
2018-11-02T01:56:14.387Z,92.90
2018-11-02T01:57:14.369Z,93.01
2018-11-02T01:58:14.363Z,93.21
2018-11-02T01:59:14.375Z,93.67
2018-11-02T02:00:14.339Z,93.97
2018-11-02T02:01:14.326Z,93.87
2018-11-02T02:02:14.317Z,93.87
2018-11-02T02:03:14.306Z,93.67
2018-11-02T02:04:14.295Z,93.77
2018-11-02T02:05:14.284Z,93.67
2018-11-02T02:06:14.272Z,93.67
2018-11-02T02:07:14.260Z,93.67
2018-11-02T02:08:14.254Z,93.77
2018-11-02T02:09:14.255Z,93.87
2018-11-02T02:10:14.228Z,93.97
2018-11-02T02:11:14.217Z,94.18
2018-11-02T02:12:14.208Z,94.07
2018-11-02T02:13:14.275Z,94.07
2018-11-02T02:14:14.186Z,93.87
2018-11-02T02:15:14.201Z,93.77
2018-11-02T02:16:14.164Z,93.97
2018-11-02T02:17:14.152Z,93.97
2018-11-02T02:18:14.141Z,94.03
2018-11-02T02:19:14.130Z,94.03
2018-11-02T02:20:14.121Z,94.03
2018-11-02T02:21:14.109Z,93.82
2018-11-02T02:22:14.097Z,93.62
2018-11-02T02:23:14.087Z,93.42
2018-11-02T02:24:14.075Z,93.42
2018-11-02T02:25:14.065Z,93.62
2018-11-02T02:26:14.053Z,93.78
2018-11-02T02:27:14.043Z,93.93
2018-11-02T02:28:14.032Z,93.82
2018-11-02T02:29:14.020Z,92.86
2018-11-02T02:30:14.009Z,93.27
2018-11-02T02:31:13.999Z,93.27
2018-11-02T02:32:13.989Z,92.55
2018-11-02T02:33:13.979Z,92.30
2018-11-02T02:34:13.964Z,92.30
2018-11-02T02:35:13.957Z,92.51
2018-11-02T02:36:13.945Z,92.61
2018-11-02T02:37:13.936Z,92.82
2018-11-02T02:38:13.924Z,92.71
2018-11-02T02:39:13.916Z,92.51
2018-11-02T02:40:13.904Z,92.51
2018-11-02T02:41:13.890Z,92.41
2018-11-02T02:42:13.880Z,92.51
2018-11-02T02:43:13.868Z,92.20
2018-11-02T02:44:13.856Z,92.20
2018-11-02T02:45:13.846Z,91.90
2018-11-02T02:46:13.845Z,92.20
2018-11-02T02:47:13.825Z,92.30
2018-11-02T02:48:13.816Z,92.30
2018-11-02T02:49:13.804Z,92.51
2018-11-02T02:50:13.791Z,92.41
2018-11-02T02:51:13.781Z,92.51
2018-11-02T02:52:13.768Z,92.41
2018-11-02T02:53:13.760Z,92.41
2018-11-02T02:54:13.749Z,92.51
2018-11-02T02:55:13.736Z,92.51
2018-11-02T02:56:13.726Z,92.30
2018-11-02T02:57:13.714Z,91.99
2018-11-02T02:58:13.701Z,91.79
2018-11-02T02:59:13.696Z,92.10
2018-11-02T03:00:13.682Z,91.79
2018-11-02T03:01:13.670Z,91.38
2018-11-02T03:02:13.661Z,91.79
2018-11-02T03:03:13.650Z,91.79
2018-11-02T03:04:13.637Z,92.10
2018-11-02T03:05:13.631Z,92.20
2018-11-02T03:06:13.616Z,91.69
2018-11-02T03:07:13.606Z,91.58
2018-11-02T03:08:13.625Z,91.90
2018-11-02T03:09:13.585Z,92.10
2018-11-02T03:10:13.589Z,92.20
2018-11-02T03:11:13.851Z,91.99
2018-11-02T03:12:13.552Z,91.90
2018-11-02T03:13:13.541Z,91.69
2018-11-02T03:14:13.529Z,91.54
2018-11-02T03:15:13.518Z,91.03
2018-11-02T03:16:13.506Z,91.13
2018-11-02T03:17:13.498Z,90.93
2018-11-02T03:18:13.519Z,90.93
2018-11-02T03:19:13.473Z,90.83
2018-11-02T03:20:13.465Z,90.83
2018-11-02T03:21:13.477Z,90.62
2018-11-02T03:22:13.502Z,90.62
2018-11-02T03:23:13.432Z,91.03
2018-11-02T03:24:13.419Z,90.93
2018-11-02T03:25:13.408Z,90.72
2018-11-02T03:26:13.397Z,89.29
2018-11-02T03:27:13.390Z,89.70
2018-11-02T03:28:13.375Z,89.49
2018-11-02T03:29:13.365Z,89.70
2018-11-02T03:30:13.354Z,90.11
2018-11-02T03:31:13.351Z,89.08
2018-11-02T03:32:13.333Z,88.47
2018-11-02T03:33:13.318Z,88.78
2018-11-02T03:34:13.309Z,89.29
2018-11-02T03:35:13.298Z,89.29
2018-11-02T03:36:13.289Z,89.39
2018-11-02T03:37:13.277Z,88.87
2018-11-02T03:38:13.276Z,89.29
2018-11-02T03:39:13.255Z,89.59
2018-11-02T03:40:13.245Z,89.08
2018-11-02T03:41:13.230Z,88.98
2018-11-02T03:42:13.221Z,88.57
2018-11-02T03:43:13.209Z,89.74
2018-11-02T03:44:13.201Z,89.84
2018-11-02T03:45:13.196Z,89.94
2018-11-02T03:46:13.177Z,89.84
2018-11-02T03:47:13.165Z,89.94
2018-11-02T03:48:13.155Z,90.15
2018-11-02T03:49:13.143Z,90.15
2018-11-02T03:50:13.132Z,90.39
2018-11-02T03:51:13.123Z,90.81
2018-11-02T03:52:13.111Z,91.22
2018-11-02T03:53:13.098Z,91.88
2018-11-02T03:54:13.088Z,91.88
2018-11-02T03:55:13.078Z,91.88
2018-11-02T03:56:13.068Z,91.57
2018-11-02T03:57:13.054Z,90.39
2018-11-02T03:58:13.047Z,89.68
2018-11-02T03:59:13.032Z,90.30
2018-11-02T04:00:13.308Z,90.64
2018-11-02T04:01:13.013Z,90.64
2018-11-02T04:02:13.002Z,90.85
2018-11-02T04:03:12.988Z,91.05
2018-11-02T04:04:12.981Z,91.16
2018-11-02T04:05:12.968Z,91.16
2018-11-02T04:06:12.958Z,91.82
2018-11-02T04:07:12.944Z,91.41
2018-11-02T04:08:12.936Z,91.30
2018-11-02T04:09:12.925Z,91.51
2018-11-02T04:10:12.915Z,91.20
2018-11-02T04:11:12.902Z,91.61
2018-11-02T04:12:12.893Z,91.55
2018-11-02T04:13:12.888Z,91.55
2018-11-02T04:14:12.884Z,91.55
2018-11-02T04:15:12.859Z,91.65
2018-11-02T04:16:12.847Z,92.07
2018-11-02T04:17:12.838Z,92.41
2018-11-02T04:18:12.825Z,92.11
2018-11-02T04:19:12.815Z,92.52
2018-11-02T04:20:12.803Z,92.82
2018-11-02T04:21:12.791Z,92.82
2018-11-02T04:22:12.779Z,93.03
2018-11-02T04:23:12.778Z,92.82
2018-11-02T04:24:12.757Z,91.90
2018-11-02T04:25:12.748Z,91.96
2018-11-02T04:26:12.739Z,92.07
2018-11-02T04:27:12.725Z,91.86
2018-11-02T04:28:12.717Z,91.04
2018-11-02T04:29:12.721Z,91.55
2018-11-02T04:30:12.693Z,91.80
2018-11-02T04:31:12.683Z,91.49
2018-11-02T04:32:12.694Z,91.90
2018-11-02T04:33:12.661Z,92.21
2018-11-02T04:34:12.651Z,92.21
2018-11-02T04:35:12.639Z,92.05
2018-11-02T04:36:12.629Z,92.46
2018-11-02T04:37:12.618Z,91.43
2018-11-02T04:38:12.610Z,90.77
2018-11-02T04:39:12.594Z,91.08
2018-11-02T04:40:12.586Z,90.46
2018-11-02T04:41:12.579Z,90.25
2018-11-02T04:42:12.560Z,90.15
2018-11-02T04:43:12.551Z,90.97
2018-11-02T04:44:12.541Z,91.33
2018-11-02T04:45:12.528Z,91.33
2018-11-02T04:46:12.517Z,91.22
2018-11-02T04:47:12.509Z,91.53
2018-11-02T04:48:12.511Z,91.43
2018-11-02T04:49:12.485Z,91.43
2018-11-02T04:50:12.486Z,91.57
2018-11-02T04:51:12.645Z,91.37
2018-11-02T04:52:12.451Z,91.78
2018-11-02T04:53:12.444Z,91.37
2018-11-02T04:54:12.480Z,91.68
2018-11-02T04:55:12.421Z,91.47
2018-11-02T04:56:12.407Z,91.57
2018-11-02T04:57:12.399Z,91.37
2018-11-02T04:58:12.388Z,91.57
2018-11-02T04:59:12.379Z,92.13
2018-11-02T05:00:12.367Z,92.13
2018-11-02T05:01:12.357Z,92.34
2018-11-02T05:02:12.345Z,92.54
2018-11-02T05:03:12.331Z,92.24
2018-11-02T05:04:12.320Z,92.03
2018-11-02T05:05:12.311Z,92.03
2018-11-02T05:06:12.302Z,91.93
2018-11-02T05:07:12.286Z,91.93
2018-11-02T05:08:12.278Z,92.34
2018-11-02T05:09:12.267Z,92.44
2018-11-02T05:10:12.256Z,92.54
2018-11-02T05:11:12.257Z,92.44
2018-11-02T05:12:12.232Z,92.44
2018-11-02T05:13:12.221Z,92.13
2018-11-02T05:14:12.212Z,92.03
2018-11-02T05:15:12.203Z,91.72
2018-11-02T05:16:12.189Z,91.61
2018-11-02T05:17:12.179Z,91.61
2018-11-02T05:18:12.169Z,92.18
2018-11-02T05:19:12.158Z,92.59
2018-11-02T05:20:12.145Z,92.69
2018-11-02T05:21:12.307Z,92.69
2018-11-02T05:22:12.124Z,92.59
2018-11-02T05:23:12.113Z,92.38
2018-11-02T05:24:12.101Z,92.18
2018-11-02T05:25:12.093Z,92.07
2018-11-02T05:26:12.080Z,91.72
2018-11-02T05:27:12.068Z,91.72
2018-11-02T05:28:12.060Z,91.41
2018-11-02T05:29:12.046Z,91.10
2018-11-02T05:30:12.037Z,91.10
2018-11-02T05:31:12.036Z,90.89
2018-11-02T05:32:12.014Z,91.31
2018-11-02T05:33:12.004Z,91.31
2018-11-02T05:34:11.993Z,91.61
2018-11-02T05:35:11.983Z,91.51
2018-11-02T05:36:11.970Z,91.93
2018-11-02T05:37:11.959Z,91.87
2018-11-02T05:38:11.948Z,91.66
2018-11-02T05:39:11.939Z,92.07
2018-11-02T05:40:11.926Z,91.87
2018-11-02T05:41:11.917Z,92.07
2018-11-02T05:42:11.905Z,92.18
2018-11-02T05:43:11.896Z,91.87
2018-11-02T05:44:11.883Z,92.48
2018-11-02T05:45:11.873Z,92.28
2018-11-02T05:46:11.862Z,91.87
2018-11-02T05:47:11.927Z,91.87
2018-11-02T05:48:11.842Z,91.76
2018-11-02T05:49:11.835Z,91.97
2018-11-02T05:50:11.817Z,92.18
2018-11-02T05:51:11.809Z,91.87
2018-11-02T05:52:11.796Z,91.35
2018-11-02T05:53:11.785Z,91.46
2018-11-02T05:54:11.960Z,91.97
2018-11-02T05:55:11.763Z,91.91
2018-11-02T05:56:11.751Z,92.12
2018-11-02T05:57:11.742Z,93.04
2018-11-02T05:58:11.730Z,93.35
2018-11-02T05:59:11.721Z,93.24
2018-11-02T06:00:11.715Z,93.45
2018-11-02T06:01:11.701Z,93.24
2018-11-02T06:02:11.691Z,93.15
2018-11-02T06:03:11.678Z,93.15
2018-11-02T06:04:11.665Z,93.15
2018-11-02T06:05:11.655Z,93.19
2018-11-02T06:06:11.645Z,93.19
2018-11-02T06:07:11.637Z,93.60
2018-11-02T06:08:11.655Z,93.70
2018-11-02T06:09:11.612Z,93.91
2018-11-02T06:10:11.602Z,94.47
2018-11-02T06:11:11.590Z,94.67
2018-11-02T06:12:11.592Z,95.09
2018-11-02T06:13:11.567Z,95.30
2018-11-02T06:14:11.558Z,95.40
2018-11-02T06:15:11.547Z,95.65
2018-11-02T06:16:11.536Z,96.06
2018-11-02T06:17:11.528Z,96.47
2018-11-02T06:18:11.512Z,96.37
2018-11-02T06:19:11.505Z,96.47
2018-11-02T06:20:11.495Z,96.47
2018-11-02T06:21:11.482Z,96.37
2018-11-02T06:22:11.475Z,96.47
2018-11-02T06:23:11.458Z,96.47
2018-11-02T06:24:11.490Z,96.58
2018-11-02T06:25:11.444Z,96.37
2018-11-02T06:26:11.428Z,96.22
2018-11-02T06:27:11.416Z,96.12
2018-11-02T06:28:11.402Z,95.91
2018-11-02T06:29:11.394Z,95.75
2018-11-02T06:30:11.388Z,95.65
2018-11-02T06:31:11.370Z,95.65
2018-11-02T06:32:11.360Z,95.75
2018-11-02T06:33:11.351Z,95.85
2018-11-02T06:34:11.339Z,96.06
2018-11-02T06:35:11.330Z,96.06
2018-11-02T06:36:11.318Z,96.06
2018-11-02T06:37:11.306Z,95.85
2018-11-02T06:38:11.295Z,95.65
2018-11-02T06:39:11.285Z,95.34
2018-11-02T06:40:11.275Z,95.03
2018-11-02T06:41:11.262Z,95.03
2018-11-02T06:42:11.251Z,94.82
2018-11-02T06:43:11.241Z,94.56
2018-11-02T06:44:11.229Z,94.76
2018-11-02T06:45:11.294Z,95.28
2018-11-02T06:46:11.208Z,95.17
2018-11-02T06:47:11.195Z,95.28
2018-11-02T06:48:11.188Z,95.28
2018-11-02T06:49:11.176Z,95.28
2018-11-02T06:50:11.199Z,95.38
2018-11-02T06:51:11.156Z,95.17
2018-11-02T06:52:11.150Z,95.28
2018-11-02T06:53:11.145Z,95.38
2018-11-02T06:54:11.123Z,95.48
2018-11-02T06:55:11.109Z,95.48
2018-11-02T06:56:11.099Z,95.48
2018-11-02T06:57:11.089Z,95.48
2018-11-02T06:58:11.090Z,95.80
2018-11-02T06:59:11.172Z,95.80
2018-11-02T07:00:11.250Z,96.00
2018-11-02T07:01:11.045Z,96.00
2018-11-02T07:02:11.034Z,95.90
2018-11-02T07:03:11.023Z,95.90
2018-11-02T07:04:11.011Z,95.69
2018-11-02T07:05:11.002Z,95.55
2018-11-02T07:06:10.988Z,95.85
2018-11-02T07:07:11.036Z,95.75
2018-11-02T07:08:11.315Z,95.13
2018-11-02T07:09:10.985Z,95.09
2018-11-02T07:10:10.946Z,94.88
2018-11-02T07:11:10.935Z,94.57
2018-11-02T07:12:10.924Z,94.47
2018-11-02T07:13:10.912Z,94.37
2018-11-02T07:14:10.903Z,94.12
2018-11-02T07:15:10.894Z,94.01
2018-11-02T07:16:10.903Z,93.81
2018-11-02T07:17:10.869Z,93.70
2018-11-02T07:18:10.860Z,93.70
2018-11-02T07:19:10.849Z,93.60
2018-11-02T07:20:10.870Z,93.60
2018-11-02T07:21:10.829Z,93.60
2018-11-02T07:22:10.816Z,93.39
2018-11-02T07:23:10.806Z,93.60
2018-11-02T07:24:10.797Z,93.49
2018-11-02T07:25:10.829Z,93.39
2018-11-02T07:26:10.773Z,93.19
2018-11-02T07:27:10.762Z,93.49
2018-11-02T07:28:10.784Z,93.91
2018-11-02T07:29:10.740Z,93.70
2018-11-02T07:30:10.729Z,93.29
2018-11-02T07:31:10.720Z,92.94
2018-11-02T07:32:10.707Z,92.77
2018-11-02T07:33:10.713Z,93.09
2018-11-02T07:34:10.750Z,92.84
2018-11-02T07:35:10.673Z,92.84
2018-11-02T07:36:10.661Z,92.42
2018-11-02T07:37:10.653Z,92.52
2018-11-02T07:38:10.641Z,92.38
2018-11-02T07:39:10.629Z,92.28
2018-11-02T07:40:10.621Z,92.24
2018-11-02T07:41:10.607Z,91.31
2018-11-02T07:42:10.599Z,90.96
2018-11-02T07:43:10.588Z,91.27
2018-11-02T07:44:10.575Z,90.61
2018-11-02T07:45:10.566Z,90.19
2018-11-02T07:46:10.556Z,89.95
2018-11-02T07:47:10.542Z,89.74
2018-11-02T07:48:10.534Z,89.33
2018-11-02T07:49:10.524Z,89.53
2018-11-02T07:50:10.511Z,89.19
2018-11-02T07:51:10.499Z,88.98
2018-11-02T07:52:10.487Z,88.36
2018-11-02T07:53:10.478Z,88.22
2018-11-02T07:54:10.465Z,88.53
2018-11-02T07:55:10.465Z,88.39
2018-11-02T07:56:10.443Z,87.67
2018-11-02T07:57:10.434Z,87.15
2018-11-02T07:58:10.433Z,86.40
2018-11-02T07:59:10.411Z,85.98
2018-11-02T08:00:10.406Z,86.91
2018-11-02T08:01:10.390Z,86.87
2018-11-02T08:02:10.386Z,86.15
2018-11-02T08:03:10.368Z,86.25
2018-11-02T08:04:10.356Z,86.76
2018-11-02T08:05:10.347Z,86.66
2018-11-02T08:06:10.334Z,86.97
2018-11-02T08:07:10.324Z,86.56
2018-11-02T08:08:10.314Z,86.11
2018-11-02T08:09:10.301Z,86.62
2018-11-02T08:10:10.291Z,85.55
2018-11-02T08:11:10.324Z,85.25
2018-11-02T08:12:10.271Z,85.21
2018-11-02T08:13:10.259Z,84.66
2018-11-02T08:14:10.245Z,84.11
2018-11-02T08:15:10.237Z,82.98
2018-11-02T08:16:10.226Z,82.64
2018-11-02T08:17:10.214Z,82.23
2018-11-02T08:18:10.204Z,82.60
2018-11-02T08:19:10.283Z,81.88
2018-11-02T08:20:10.182Z,80.86
2018-11-02T08:21:10.168Z,80.76
2018-11-02T08:22:10.158Z,81.47
2018-11-02T08:23:10.148Z,79.63
2018-11-02T08:24:10.142Z,79.94
2018-11-02T08:25:10.129Z,80.59
2018-11-02T08:26:10.115Z,76.70
2018-11-02T08:27:10.107Z,79.16
2018-11-02T08:28:10.101Z,78.96
2018-11-02T08:29:10.082Z,79.77
2018-11-02T08:30:10.070Z,79.05
2018-11-02T08:31:10.059Z,77.18
2018-11-02T08:32:10.187Z,76.77
2018-11-02T08:33:10.040Z,74.52
2018-11-02T08:34:10.025Z,75.34
2018-11-02T08:35:10.016Z,77.28
2018-11-02T08:36:10.006Z,77.38
2018-11-02T08:37:09.993Z,78.61
2018-11-02T08:38:09.983Z,75.95
2018-11-02T08:39:09.971Z,77.28
2018-11-02T08:40:09.960Z,75.44
2018-11-02T08:41:09.951Z,75.34
2018-11-02T08:42:09.937Z,76.77
2018-11-02T08:43:09.932Z,74.73
2018-11-02T08:44:09.915Z,75.34
2018-11-02T08:45:09.908Z,73.80
2018-11-02T08:46:09.894Z,73.19
2018-11-02T08:47:09.883Z,75.85
2018-11-02T08:48:09.873Z,74.11
2018-11-02T08:49:09.862Z,75.37
2018-11-02T08:50:09.854Z,74.73
2018-11-02T08:51:09.839Z,76.47
2018-11-02T08:52:09.916Z,75.99
2018-11-02T08:53:09.819Z,75.48
2018-11-02T08:54:09.808Z,76.36
2018-11-02T08:55:09.796Z,75.65
2018-11-02T08:56:09.789Z,75.24
2018-11-02T08:57:09.774Z,72.38
2018-11-02T08:58:09.907Z,75.61
2018-11-02T08:59:09.765Z,73.05
2018-11-02T09:00:09.854Z,72.85
2018-11-02T09:01:09.733Z,70.91
2018-11-02T09:02:09.719Z,70.91
2018-11-02T09:03:09.709Z,73.57
2018-11-02T09:04:09.696Z,75.00
2018-11-02T09:05:09.842Z,72.47
2018-11-02T09:06:09.676Z,74.73
2018-11-02T09:07:09.665Z,71.56
2018-11-02T09:08:09.653Z,71.73
2018-11-02T09:09:09.642Z,70.81
2018-11-02T09:10:09.633Z,70.81
2018-11-02T09:11:09.624Z,72.65
2018-11-02T09:12:09.694Z,71.52
2018-11-02T09:13:09.598Z,68.56
2018-11-02T09:14:09.589Z,71.63
2018-11-02T09:15:09.578Z,69.78
2018-11-02T09:16:09.564Z,69.37
2018-11-02T09:17:09.554Z,70.81
2018-11-02T09:18:09.550Z,70.50
2018-11-02T09:19:09.548Z,69.28
2018-11-02T09:20:09.520Z,69.20
2018-11-02T09:21:09.510Z,70.43
2018-11-02T09:22:09.499Z,71.66
2018-11-02T09:23:09.488Z,72.79
2018-11-02T09:24:09.477Z,69.82
2018-11-02T09:25:09.468Z,70.02
2018-11-02T09:26:09.457Z,69.82
2018-11-02T09:27:09.443Z,71.45
2018-11-02T09:28:09.543Z,70.94
2018-11-02T09:29:09.425Z,70.12
2018-11-02T09:30:09.411Z,71.25
2018-11-02T09:31:09.401Z,72.38
2018-11-02T09:32:09.390Z,72.68
2018-11-02T09:33:09.376Z,71.76
2018-11-02T09:34:09.368Z,69.51
2018-11-02T09:35:09.357Z,70.23
2018-11-02T09:36:09.345Z,70.94
2018-11-02T09:37:09.335Z,72.79
2018-11-02T09:38:09.322Z,70.53
2018-11-02T09:39:09.313Z,71.15
2018-11-02T09:40:09.349Z,70.84
2018-11-02T09:41:09.289Z,72.07
2018-11-02T09:42:09.280Z,71.08
2018-11-02T09:43:09.269Z,71.38
2018-11-02T09:44:09.258Z,71.59
2018-11-02T09:45:09.247Z,71.89
2018-11-02T09:46:09.235Z,71.49
2018-11-02T09:47:09.223Z,71.38
2018-11-02T09:48:09.211Z,71.69
2018-11-02T09:49:09.202Z,70.84
2018-11-02T09:50:09.196Z,72.68
2018-11-02T09:51:09.180Z,71.05
2018-11-02T09:52:09.319Z,71.05
2018-11-02T09:53:09.160Z,72.38
2018-11-02T09:54:09.145Z,71.25
2018-11-02T09:55:09.135Z,71.56
2018-11-02T09:56:09.130Z,72.95
2018-11-02T09:57:09.113Z,73.57
2018-11-02T09:58:09.103Z,73.67
2018-11-02T09:59:09.090Z,73.67
2018-11-02T10:00:09.081Z,74.28
2018-11-02T10:01:09.079Z,73.77
2018-11-02T10:02:09.137Z,73.87
2018-11-02T10:03:09.048Z,72.75
2018-11-02T10:04:09.034Z,69.99
2018-11-02T10:05:09.025Z,72.30
2018-11-02T10:06:09.016Z,69.65
2018-11-02T10:07:09.003Z,68.22
2018-11-02T10:08:08.992Z,69.65
2018-11-02T10:09:09.035Z,71.25
2018-11-02T10:10:08.971Z,70.64
2018-11-02T10:11:08.962Z,68.97
2018-11-02T10:12:08.950Z,68.39
2018-11-02T10:13:08.948Z,67.57
2018-11-02T10:14:08.930Z,68.57
2018-11-02T10:15:08.916Z,71.42
2018-11-02T10:16:08.905Z,70.13
2018-11-02T10:17:08.893Z,69.82
2018-11-02T10:18:08.883Z,70.98
2018-11-02T10:19:08.872Z,72.41
2018-11-02T10:20:08.859Z,69.86
2018-11-02T10:21:08.849Z,70.26
2018-11-02T10:22:08.836Z,70.36
2018-11-02T10:23:08.829Z,71.66
2018-11-02T10:24:08.817Z,70.23
2018-11-02T10:25:08.805Z,68.60
2018-11-02T10:26:08.797Z,68.90
2018-11-02T10:27:08.782Z,69.68
2018-11-02T10:28:08.835Z,70.09
2018-11-02T10:29:08.761Z,68.87
2018-11-02T10:30:08.761Z,68.26
2018-11-02T10:31:08.739Z,69.18
2018-11-02T10:32:08.730Z,69.28
2018-11-02T10:33:08.720Z,67.85
2018-11-02T10:34:08.706Z,68.77
2018-11-02T10:35:08.707Z,70.09
2018-11-02T10:36:08.855Z,70.09
2018-11-02T10:37:08.688Z,68.57
2018-11-02T10:38:08.666Z,69.38
2018-11-02T10:39:08.650Z,68.87
2018-11-02T10:40:08.641Z,69.28
2018-11-02T10:41:08.627Z,70.00
2018-11-02T10:42:08.617Z,69.59
2018-11-02T10:43:08.609Z,68.57
2018-11-02T10:44:08.636Z,68.36
2018-11-02T10:45:08.586Z,67.85
2018-11-02T10:46:08.574Z,68.06
2018-11-02T10:47:08.563Z,69.28
2018-11-02T10:48:08.556Z,69.28
2018-11-02T10:49:08.607Z,69.07
2018-11-02T10:50:08.535Z,69.31
2018-11-02T10:51:08.539Z,69.92
2018-11-02T10:52:08.512Z,69.72
2018-11-02T10:53:08.496Z,70.03
2018-11-02T10:54:08.485Z,69.65
2018-11-02T10:55:08.475Z,73.74
2018-11-02T10:56:08.461Z,72.38
2018-11-02T10:57:08.484Z,71.35
2018-11-02T10:58:08.443Z,69.18
2018-11-02T10:59:08.434Z,68.87
2018-11-02T11:00:08.419Z,69.68
2018-11-02T11:01:08.595Z,69.04
2018-11-02T11:02:08.400Z,69.55
2018-11-02T11:03:08.390Z,71.08
2018-11-02T11:04:08.377Z,69.86
2018-11-02T11:05:08.405Z,68.30
2018-11-02T11:06:08.353Z,66.87
2018-11-02T11:07:08.342Z,69.35
2018-11-02T11:08:08.331Z,70.67
2018-11-02T11:09:08.319Z,69.25
2018-11-02T11:10:08.347Z,66.90
2018-11-02T11:11:08.297Z,68.23
2018-11-02T11:12:08.318Z,69.45
2018-11-02T11:13:08.522Z,69.62
2018-11-02T11:14:08.263Z,67.01
2018-11-02T11:15:08.252Z,67.21
2018-11-02T11:16:08.243Z,67.51
2018-11-02T11:17:08.232Z,68.33
2018-11-02T11:18:08.224Z,68.12
2018-11-02T11:19:08.210Z,68.33
2018-11-02T11:20:08.200Z,67.48
2018-11-02T11:21:08.246Z,67.28
2018-11-02T11:22:08.177Z,71.45
2018-11-02T11:23:08.167Z,67.86
2018-11-02T11:24:08.164Z,66.33
2018-11-02T11:25:08.144Z,67.35
2018-11-02T11:26:08.132Z,68.67
2018-11-02T11:27:08.122Z,67.12
2018-11-02T11:28:08.117Z,67.01
2018-11-02T11:29:08.137Z,68.81
2018-11-02T11:30:08.089Z,66.68
2018-11-02T11:31:08.078Z,65.05
2018-11-02T11:32:08.067Z,66.40
2018-11-02T11:33:08.057Z,67.62
2018-11-02T11:34:08.047Z,66.84
2018-11-02T11:35:08.041Z,66.33
2018-11-02T11:36:08.024Z,66.16
2018-11-02T11:37:08.012Z,68.40
2018-11-02T11:38:07.999Z,67.62
2018-11-02T11:39:07.988Z,68.33
2018-11-02T11:40:07.977Z,68.02
2018-11-02T11:41:07.969Z,68.40
2018-11-02T11:42:07.956Z,69.32
2018-11-02T11:43:07.943Z,68.91
2018-11-02T11:44:07.935Z,67.45
2018-11-02T11:45:07.922Z,66.63
2018-11-02T11:46:07.912Z,67.55
2018-11-02T11:47:07.904Z,65.85
2018-11-02T11:48:07.889Z,68.02
2018-11-02T11:49:07.964Z,67.31
2018-11-02T11:50:07.870Z,67.41
2018-11-02T11:51:07.856Z,68.20
2018-11-02T11:52:07.852Z,68.94
2018-11-02T11:53:07.834Z,69.62
2018-11-02T11:54:07.824Z,69.11
2018-11-02T11:55:07.815Z,69.11
2018-11-02T11:56:07.807Z,69.59
2018-11-02T11:57:07.790Z,67.52
2018-11-02T11:58:07.784Z,66.33
2018-11-02T11:59:07.768Z,67.86
2018-11-02T12:00:07.759Z,68.03
2018-11-02T12:01:07.746Z,66.10
2018-11-02T12:02:07.741Z,65.69
2018-11-02T12:03:07.725Z,67.32
2018-11-02T12:04:07.747Z,65.99
2018-11-02T12:05:07.705Z,66.60
2018-11-02T12:06:07.693Z,67.12
2018-11-02T12:07:07.680Z,65.79
2018-11-02T12:08:07.669Z,65.82
2018-11-02T12:09:07.686Z,67.55
2018-11-02T12:10:07.677Z,68.47
2018-11-02T12:11:07.638Z,66.33
2018-11-02T12:12:07.628Z,67.45
2018-11-02T12:13:07.616Z,66.63
2018-11-02T12:14:07.604Z,67.52
2018-11-02T12:15:07.593Z,68.03
2018-11-02T12:16:07.662Z,68.95
2018-11-02T12:17:07.572Z,66.91
2018-11-02T12:18:07.560Z,67.01
2018-11-02T12:19:07.550Z,66.30
2018-11-02T12:20:07.538Z,66.19
2018-11-02T12:21:07.525Z,66.19
2018-11-02T12:22:07.515Z,65.99
2018-11-02T12:23:07.505Z,65.28
2018-11-02T12:24:07.492Z,66.30
2018-11-02T12:25:07.480Z,66.60
2018-11-02T12:26:07.473Z,67.82
2018-11-02T12:27:07.461Z,66.50
2018-11-02T12:28:07.500Z,65.89
2018-11-02T12:29:07.437Z,64.06
2018-11-02T12:30:07.426Z,64.56
2018-11-02T12:31:07.418Z,64.84
2018-11-02T12:32:07.407Z,64.33
2018-11-02T12:33:07.398Z,64.23
2018-11-02T12:34:07.382Z,63.42
2018-11-02T12:35:07.374Z,63.62
2018-11-02T12:36:07.360Z,64.97
2018-11-02T12:37:07.445Z,65.66
2018-11-02T12:38:07.338Z,66.16
2018-11-02T12:39:07.327Z,62.73
2018-11-02T12:40:07.316Z,62.32
2018-11-02T12:41:07.308Z,64.09
2018-11-02T12:42:07.298Z,65.14
2018-11-02T12:43:07.332Z,64.93
2018-11-02T12:44:07.274Z,64.01
2018-11-02T12:45:07.262Z,64.66
2018-11-02T12:46:07.253Z,65.27
2018-11-02T12:47:07.242Z,64.73
2018-11-02T12:48:07.360Z,65.44
2018-11-02T12:49:07.419Z,65.95
2018-11-02T12:50:07.261Z,64.80
2018-11-02T12:51:07.196Z,64.59
2018-11-02T12:52:07.186Z,66.22
2018-11-02T12:53:07.175Z,65.52
2018-11-02T12:54:07.165Z,64.53
2018-11-02T12:55:07.152Z,65.67
2018-11-02T12:56:07.140Z,65.78
2018-11-02T12:57:07.130Z,66.16
2018-11-02T12:58:07.117Z,65.14